Time;durP1;ratioP1;P1;durP2;ratioP2;P2;SDS_P1;SDS_P2;PMS_P1;PMS_P2;Temp;Humidity;BMP_temperature;BMP_pressure;BME280_temperature;BME280_humidity;BME280_pressure;Samples;Min_cycle;Max_cycle;Signal;HPM_P1;HPM_P2
2023/04/08 00:01:37;;;;;;;2.47;1.30;;;;;;;19.18;51.56;99330.91;4994477;28;20053;-64
2023/04/08 00:04:03;;;;;;;3.15;1.60;;;;;;;19.18;51.20;99332.72;4994474;28;20030;-63
2023/04/08 00:06:28;;;;;;;2.95;1.60;;;;;;;19.16;51.51;99338.09;4994110;28;20030;-64
2023/04/08 00:08:54;;;;;;;3.83;1.70;;;;;;;19.16;51.48;99340.72;4994436;28;20018;-63
2023/04/08 00:11:20;;;;;;;2.92;1.50;;;;;;;19.16;51.36;99338.09;4994390;28;20026;-63
2023/04/08 00:13:45;;;;;;;2.67;1.58;;;;;;;19.15;51.47;99338.16;4994263;28;20053;-64
2023/04/08 00:16:11;;;;;;;2.85;1.63;;;;;;;19.14;51.39;99341.75;4994330;28;20022;-63
2023/04/08 00:18:37;;;;;;;3.38;1.80;;;;;;;19.13;51.60;99337.41;4994130;28;20026;-65
2023/04/08 00:21:03;;;;;;;3.05;1.63;;;;;;;19.11;51.47;99336.59;4975016;28;20105;-64
2023/04/08 00:23:28;;;;;;;2.95;1.45;;;;;;;19.10;51.55;99334.91;4974913;28;20110;-63
2023/04/08 00:25:54;;;;;;;3.00;1.65;;;;;;;19.09;51.40;99334.06;4974536;28;20033;-64
2023/04/08 00:28:20;;;;;;;3.30;1.60;;;;;;;19.10;51.46;99337.56;4974749;28;20396;-63
2023/04/08 00:30:45;;;;;;;4.07;1.70;;;;;;;19.07;51.24;99335.09;4974156;28;20030;-63
2023/04/08 00:33:11;;;;;;;3.50;1.67;;;;;;;19.07;51.66;99337.75;4974479;28;20027;-64
2023/04/08 00:35:36;;;;;;;2.65;1.50;;;;;;;19.05;51.45;99336.00;4974102;28;20077;-64
2023/04/08 00:38:03;;;;;;;3.67;1.60;;;;;;;19.05;51.31;99337.81;4974283;28;20057;-64
2023/04/08 00:40:28;;;;;;;3.33;1.60;;;;;;;19.04;51.36;99331.66;4974344;28;20050;-63
2023/04/08 00:42:56;;;;;;;2.95;1.55;;;;;;;19.04;51.27;99336.94;4974386;28;20023;-63
2023/04/08 00:45:21;;;;;;;3.25;1.60;;;;;;;19.02;51.44;99338.81;4974278;28;20097;-63
2023/04/08 00:47:51;;;;;;;2.97;1.73;;;;;;;19.01;51.49;99337.09;4974398;28;20469;-63
2023/04/08 00:50:17;;;;;;;2.63;1.60;;;;;;;19.00;51.40;99339.81;4973845;28;20078;-64
2023/04/08 00:52:42;;;;;;;2.55;1.52;;;;;;;19.00;51.33;99342.47;4974412;28;20023;-64
2023/04/08 00:55:08;;;;;;;3.13;1.50;;;;;;;18.97;51.41;99332.91;4974547;28;20019;-63
2023/04/08 00:57:34;;;;;;;3.88;1.52;;;;;;;18.97;51.23;99335.56;4974105;28;20081;-63
2023/04/08 00:59:59;;;;;;;3.58;1.80;;;;;;;18.96;51.31;99344.44;4974439;28;20034;-64
2023/04/08 01:03:00;;;;;;;3.30;1.75;;;;;;;18.93;51.48;99341.94;4974239;28;20497;-63
2023/04/08 01:06:03;;;;;;;3.70;1.70;;;;;;;18.92;51.42;99343.75;4963653;28;20398;-64
2023/04/08 01:08:31;;;;;;;2.65;1.63;;;;;;;18.92;51.44;99340.22;4973777;28;20505;-64
2023/04/08 01:11:00;;;;;;;2.72;1.50;;;;;;;18.92;51.59;99340.22;4974145;28;20026;-65
2023/04/08 01:13:29;;;;;;;2.60;1.42;;;;;;;18.89;51.40;99343.06;4974108;28;20033;-65
2023/04/08 01:15:56;;;;;;;2.85;1.52;;;;;;;18.90;51.57;99345.59;4973391;28;20116;-64
2023/04/08 01:18:21;;;;;;;2.80;1.70;;;;;;;18.89;51.32;99337.78;4973561;28;20015;-64
2023/04/08 01:20:49;;;;;;;2.92;1.45;;;;;;;18.88;51.36;99334.25;4974025;28;20018;-64
2023/04/08 01:23:50;;;;;;;3.55;1.77;;;;;;;18.86;51.29;99337.94;4974120;28;20507;-63
2023/04/08 01:26:21;;;;;;;3.28;1.63;;;;;;;18.85;51.52;99331.81;4958654;28;20459;-64
2023/04/08 01:28:50;;;;;;;3.13;1.67;;;;;;;18.85;51.32;99325.66;4974001;28;20045;-64
2023/04/08 01:31:16;;;;;;;3.58;1.67;;;;;;;18.84;51.19;99337.16;4973491;28;20544;-63
2023/04/08 01:33:43;;;;;;;3.72;1.65;;;;;;;18.84;51.53;99340.66;4973455;28;20093;-63
2023/04/08 01:36:09;;;;;;;3.05;1.67;;;;;;;18.83;51.40;99338.09;4973647;28;20026;-63
2023/04/08 01:38:37;;;;;;;3.38;1.67;;;;;;;18.83;51.35;99338.09;4975810;28;20030;-63
2023/04/08 01:41:04;;;;;;;4.05;1.88;;;;;;;18.79;51.23;99338.25;4993019;28;20037;-64
2023/04/08 01:43:32;;;;;;;3.53;2.00;;;;;;;18.82;50.96;99347.81;4981576;28;20027;-63
2023/04/08 01:45:59;;;;;;;3.88;1.83;;;;;;;18.80;51.12;99339.13;4973520;28;20042;-63
2023/04/08 01:48:24;;;;;;;3.30;1.60;;;;;;;18.78;51.26;99336.56;4973154;28;20062;-65
2023/04/08 01:50:51;;;;;;;3.65;1.88;;;;;;;18.79;51.01;99348.81;4973523;28;20042;-63
2023/04/08 01:53:17;;;;;;;2.90;1.90;;;;;;;18.76;51.36;99333.16;4973485;28;20027;-64
2023/04/08 01:55:44;;;;;;;3.53;1.90;;;;;;;18.75;51.38;99338.50;4973585;28;20034;-64
2023/04/08 01:58:16;;;;;;;3.17;1.85;;;;;;;18.77;51.27;99345.44;4956167;28;20485;-64
2023/04/08 02:00:42;;;;;;;3.03;1.50;;;;;;;18.75;51.53;99341.16;4972831;28;20477;-64
2023/04/08 02:03:11;;;;;;;4.03;2.15;;;;;;;18.72;51.35;99328.09;4973084;28;20110;-63
2023/04/08 02:05:36;;;;;;;2.90;1.60;;;;;;;18.73;51.23;99314.81;4981564;28;20084;-64
2023/04/08 02:08:02;;;;;;;4.05;2.08;;;;;;;18.71;51.55;99334.31;4992527;28;20034;-64
2023/04/08 02:10:27;;;;;;;3.35;1.60;;;;;;;18.71;51.27;99329.91;4992460;28;20026;-63
2023/04/08 02:12:54;;;;;;;3.10;1.73;;;;;;;18.68;51.37;99324.75;4992627;28;20034;-63
2023/04/08 02:15:19;;;;;;;2.97;1.70;;;;;;;18.67;51.36;99328.34;4992089;28;20042;-63
2023/04/08 02:17:49;;;;;;;2.60;1.50;;;;;;;18.67;51.42;99333.63;4992417;28;20030;-63
2023/04/08 02:20:18;;;;;;;3.90;1.77;;;;;;;18.67;51.56;99338.91;4992450;28;20156;-64
2023/04/08 02:23:01;;;;;;;3.42;2.03;;;;;;;18.66;51.78;99342.50;4992539;28;20038;-64
2023/04/08 02:25:29;;;;;;;2.88;1.60;;;;;;;18.66;51.51;99347.78;4992210;28;20041;-63
2023/04/08 02:27:56;;;;;;;2.45;1.42;;;;;;;18.65;51.43;99346.91;4992439;28;20038;-64
2023/04/08 02:30:24;;;;;;;3.28;1.50;;;;;;;18.66;51.53;99347.78;4992179;28;20431;-63
2023/04/08 02:32:52;;;;;;;2.97;1.83;;;;;;;18.63;51.55;99347.94;4992702;28;20062;-65
2023/04/08 02:35:19;;;;;;;3.00;1.88;;;;;;;18.63;51.78;99340.00;4992689;28;20515;-63
2023/04/08 02:37:46;;;;;;;2.85;1.50;;;;;;;18.61;51.65;99344.53;4991123;28;20034;-63
2023/04/08 02:40:27;;;;;;;2.65;1.50;;;;;;;18.62;51.76;99346.22;4973136;28;20054;-63
2023/04/08 02:42:53;;;;;;;3.63;1.70;;;;;;;18.59;51.46;99344.59;4973267;28;20027;-64
2023/04/08 02:45:19;;;;;;;2.60;1.30;;;;;;;18.59;51.74;99341.13;4973173;28;20034;-63
2023/04/08 02:47:44;;;;;;;3.58;1.92;;;;;;;18.57;51.38;99333.28;4973083;28;20039;-64
2023/04/08 02:50:10;;;;;;;4.47;1.70;;;;;;;18.57;51.29;99338.56;4973318;28;20033;-63
2023/04/08 02:52:35;;;;;;;3.00;1.73;;;;;;;18.56;51.67;99336.00;4972772;28;20046;-64
2023/04/08 02:55:01;;;;;;;3.72;1.98;;;;;;;18.53;51.51;99331.72;4975328;28;20489;-63
2023/04/08 02:57:26;;;;;;;2.47;1.50;;;;;;;18.52;51.73;99330.88;4976266;28;20070;-63
2023/04/08 02:59:51;;;;;;;3.72;2.00;;;;;;;18.55;51.51;99335.13;4976142;28;20374;-63
2023/04/08 03:02:17;;;;;;;2.45;1.45;;;;;;;18.54;51.60;99332.59;4976401;28;20035;-64
2023/04/08 03:04:42;;;;;;;2.90;1.80;;;;;;;18.53;51.65;99342.28;4976275;28;20027;-63
2023/04/08 03:07:08;;;;;;;3.03;1.70;;;;;;;18.55;51.70;99339.56;4976194;28;20035;-64
2023/04/08 03:09:33;;;;;;;2.92;1.70;;;;;;;18.53;51.71;99344.94;4976018;28;20070;-63
2023/04/08 03:11:58;;;;;;;3.70;1.88;;;;;;;18.51;51.62;99345.00;4976067;28;20034;-64
2023/04/08 03:14:24;;;;;;;3.33;1.98;;;;;;;18.50;51.62;99350.38;4975508;28;20113;-64
2023/04/08 03:16:49;;;;;;;2.85;1.38;;;;;;;18.49;51.66;99341.59;4976225;28;20378;-64
2023/04/08 03:19:15;;;;;;;2.85;1.67;;;;;;;18.48;51.64;99339.91;4976043;28;20031;-63
2023/04/08 03:21:41;;;;;;;4.30;1.85;;;;;;;18.46;51.51;99336.47;4976058;28;20540;-63
2023/04/08 03:24:06;;;;;;;2.80;1.55;;;;;;;18.47;51.75;99339.97;4976139;28;20027;-63
2023/04/08 03:26:31;;;;;;;3.65;1.98;;;;;;;18.47;51.64;99342.59;4975737;28;20035;-63
2023/04/08 03:28:57;;;;;;;3.28;1.95;;;;;;;18.44;51.37;99343.63;4975801;28;20027;-64
2023/04/08 03:31:22;;;;;;;2.60;1.50;;;;;;;18.44;51.52;99346.25;4975647;28;20027;-64
2023/04/08 03:33:48;;;;;;;3.75;1.70;;;;;;;18.44;51.73;99350.72;4975675;28;20019;-63
2023/04/08 03:36:13;;;;;;;2.85;1.63;;;;;;;18.44;51.34;99345.44;4975653;28;20481;-64
2023/04/08 03:38:38;;;;;;;3.47;1.80;;;;;;;18.43;51.31;99355.13;4978331;28;20058;-63
2023/04/08 03:41:04;;;;;;;2.70;1.40;;;;;;;18.42;51.52;99348.16;4995062;28;20571;-63
2023/04/08 03:43:30;;;;;;;3.05;1.75;;;;;;;18.43;51.48;99347.19;4983940;28;20473;-63
2023/04/08 03:45:55;;;;;;;2.85;1.50;;;;;;;18.43;51.26;99352.47;4975405;28;20053;-63
2023/04/08 03:48:21;;;;;;;2.38;1.30;;;;;;;18.40;51.29;99347.34;4975444;28;20465;-63
2023/04/08 03:50:47;;;;;;;2.95;1.50;;;;;;;18.38;51.53;99339.53;4984539;28;20037;-64
2023/04/08 03:53:13;;;;;;;2.55;1.55;;;;;;;18.39;51.26;99345.66;4994709;28;20026;-63
2023/04/08 03:55:39;;;;;;;3.22;1.63;;;;;;;18.41;51.42;99348.22;4994400;28;20034;-64
2023/04/08 03:58:04;;;;;;;2.38;1.38;;;;;;;18.38;51.56;99343.94;4994158;28;20488;-63
2023/04/08 04:00:30;;;;;;;3.40;1.92;;;;;;;18.37;51.28;99342.25;4994559;28;20023;-64
2023/04/08 04:02:55;;;;;;;3.67;1.60;;;;;;;18.39;51.53;99340.34;4994584;28;20026;-64
2023/04/08 04:05:21;;;;;;;3.60;1.77;;;;;;;18.36;51.23;99341.38;4993196;28;20026;-63
2023/04/08 04:07:46;;;;;;;3.17;1.70;;;;;;;18.35;51.23;99339.66;4994483;28;20391;-64
2023/04/08 04:10:12;;;;;;;3.20;1.50;;;;;;;18.32;51.19;99338.97;4992691;28;20101;-63
2023/04/08 04:12:37;;;;;;;3.95;1.77;;;;;;;18.31;51.54;99339.91;4973914;28;20034;-64
2023/04/08 04:15:03;;;;;;;3.67;1.85;;;;;;;18.31;51.45;99339.91;4974093;28;20037;-64
2023/04/08 04:17:28;;;;;;;3.40;1.88;;;;;;;18.27;51.38;99335.72;4974756;28;20034;-63
2023/04/08 04:19:54;;;;;;;4.20;1.92;;;;;;;18.29;51.62;99339.13;4974896;28;20030;-63
2023/04/08 04:22:19;;;;;;;3.97;1.90;;;;;;;18.29;51.47;99333.84;4974900;28;20481;-63
2023/04/08 04:24:48;;;;;;;3.60;1.95;;;;;;;18.27;51.43;99341.00;4974796;28;20696;-63
2023/04/08 04:27:16;;;;;;;6.78;2.47;;;;;;;18.26;51.27;99340.16;4985472;28;20030;-63
2023/04/08 04:29:42;;;;;;;9.45;2.97;;;;;;;18.24;51.53;99337.59;4993709;28;20033;-63
2023/04/08 04:32:07;;;;;;;8.98;3.10;;;;;;;18.24;51.39;99342.88;4993973;28;20030;-63
2023/04/08 04:34:33;;;;;;;6.22;2.42;;;;;;;18.23;51.61;99338.53;4994014;28;20580;-63
2023/04/08 04:36:59;;;;;;;5.57;2.45;;;;;;;18.22;51.17;99339.44;4976204;28;20106;-63
2023/04/08 04:39:24;;;;;;;4.78;2.20;;;;;;;18.23;51.17;99332.38;4993512;28;20411;-63
2023/04/08 04:41:49;;;;;;;5.30;2.30;;;;;;;18.20;51.62;99341.31;4990305;28;20097;-63
2023/04/08 04:44:15;;;;;;;6.00;2.72;;;;;;;18.19;51.30;99339.63;4976909;28;20489;-63
2023/04/08 04:46:41;;;;;;;5.55;2.15;;;;;;;18.17;51.51;99346.78;4957033;28;20042;-63
2023/04/08 04:49:06;;;;;;;5.50;2.10;;;;;;;18.18;51.41;99350.25;4987541;28;20030;-63
2023/04/08 04:51:34;;;;;;;4.50;1.67;;;;;;;18.18;51.20;99353.75;4993622;28;20543;-63
2023/04/08 04:54:00;;;;;;;4.72;2.33;;;;;;;18.19;51.34;99354.59;4993656;28;20567;-64
2023/04/08 04:56:25;;;;;;;3.80;1.80;;;;;;;18.14;51.61;99352.19;4992918;28;20101;-64
2023/04/08 04:58:51;;;;;;;5.30;2.42;;;;;;;18.14;51.30;99354.84;4993379;28;20113;-63
2023/04/08 05:01:16;;;;;;;3.38;1.65;;;;;;;18.12;51.51;99354.06;4993379;28;20101;-63
2023/04/08 05:03:42;;;;;;;3.53;1.67;;;;;;;18.14;51.46;99351.31;4993376;28;20033;-63
2023/04/08 05:06:07;;;;;;;3.50;1.65;;;;;;;18.12;51.66;99356.72;4993531;28;20058;-62
2023/04/08 05:08:33;;;;;;;3.28;1.65;;;;;;;18.12;51.41;99367.28;4993098;28;20077;-64
2023/04/08 05:11:00;;;;;;;4.05;1.90;;;;;;;18.10;51.55;99369.97;4993000;28;20080;-63
2023/04/08 05:13:27;;;;;;;4.57;1.80;;;;;;;18.10;51.31;99382.31;4993332;28;20033;-63
2023/04/08 05:15:52;;;;;;;3.65;1.70;;;;;;;18.08;51.41;99376.28;4991957;28;20032;-62
2023/04/08 05:18:18;;;;;;;3.78;1.60;;;;;;;18.07;51.33;99383.31;4973772;28;20027;-63
2023/04/08 05:20:44;;;;;;;3.38;1.63;;;;;;;18.05;51.16;99379.03;4973584;28;20081;-63
2023/04/08 05:23:09;;;;;;;5.20;1.67;;;;;;;18.04;51.29;99379.94;4973722;28;20034;-63
2023/04/08 05:25:35;;;;;;;3.25;1.83;;;;;;;18.03;51.22;99381.75;4973167;28;20065;-63
2023/04/08 05:28:00;;;;;;;3.70;1.65;;;;;;;18.01;51.24;99382.75;4973578;28;20088;-64
2023/04/08 05:30:26;;;;;;;4.05;1.85;;;;;;;18.02;51.14;99392.38;4973661;28;20565;-63
2023/04/08 05:32:51;;;;;;;2.90;1.50;;;;;;;17.97;51.31;99396.09;4973720;28;20117;-64
2023/04/08 05:35:16;;;;;;;3.08;1.73;;;;;;;17.97;51.20;99397.91;4973284;28;20035;-63
2023/04/08 05:37:42;;;;;;;3.67;1.73;;;;;;;17.96;51.28;99401.44;4992917;28;20066;-63
2023/04/08 05:40:08;;;;;;;3.08;1.85;;;;;;;17.95;51.34;99400.63;4971660;28;20104;-63
2023/04/08 05:42:33;;;;;;;2.95;1.60;;;;;;;17.95;51.20;99403.25;4973388;28;20027;-63
2023/04/08 05:44:59;;;;;;;3.80;1.85;;;;;;;17.96;51.14;99401.44;4973392;28;20106;-63
2023/04/08 05:47:24;;;;;;;3.22;1.70;;;;;;;17.94;51.04;99412.09;4973280;28;20067;-64
2023/04/08 05:49:50;;;;;;;2.55;1.50;;;;;;;17.95;50.96;99421.75;4973388;28;20027;-63
2023/04/08 05:52:15;;;;;;;2.47;1.60;;;;;;;17.94;50.95;99416.53;4973484;28;20042;-63
2023/04/08 05:54:44;;;;;;;3.50;1.85;;;;;;;17.94;51.19;99419.16;4972887;28;20057;-63
2023/04/08 05:57:10;;;;;;;2.88;1.70;;;;;;;17.92;51.13;99421.88;4973214;28;20049;-63
2023/04/08 05:59:35;;;;;;;3.33;1.65;;;;;;;17.91;51.40;99425.44;4955810;28;20063;-62
2023/04/08 06:02:01;;;;;;;3.28;2.00;;;;;;;17.92;51.06;99427.16;4973347;28;20404;-63
2023/04/08 06:04:26;;;;;;;3.60;1.90;;;;;;;17.93;51.03;99428.03;4973012;28;20034;-63
2023/04/08 06:06:51;;;;;;;2.38;1.35;;;;;;;17.90;51.11;99429.03;4973118;28;20062;-63
2023/04/08 06:09:17;;;;;;;3.42;1.80;;;;;;;17.89;51.20;99437.00;4972980;28;20023;-63
2023/04/08 06:11:42;;;;;;;3.25;1.58;;;;;;;17.90;51.36;99438.72;4973245;28;20030;-63
2023/04/08 06:14:08;;;;;;;2.60;1.35;;;;;;;17.90;51.50;99444.00;4973275;28;20444;-63
2023/04/08 06:16:33;;;;;;;2.70;1.35;;;;;;;17.91;51.16;99446.56;4973021;28;20034;-64
2023/04/08 06:18:59;;;;;;;3.97;1.90;;;;;;;17.89;51.16;99448.44;4973037;28;20023;-64
2023/04/08 06:21:25;;;;;;;2.25;1.38;;;;;;;17.90;51.47;99449.28;4973200;28;20027;-63
2023/04/08 06:23:50;;;;;;;2.60;1.52;;;;;;;17.89;51.28;99448.44;4972788;28;20031;-64
2023/04/08 06:26:16;;;;;;;3.25;1.50;;;;;;;17.87;51.30;99455.56;4973155;28;20030;-63
2023/04/08 06:28:42;;;;;;;3.38;1.75;;;;;;;17.89;51.26;99456.34;4973728;28;20495;-63
2023/04/08 06:31:08;;;;;;;3.03;1.60;;;;;;;17.89;51.23;99456.34;4976825;28;20023;-66
2023/04/08 06:33:33;;;;;;;2.92;1.42;;;;;;;17.88;51.29;99457.28;4976552;28;20030;-63
2023/04/08 06:36:03;;;;;;;3.00;1.85;;;;;;;17.89;50.97;99468.69;4976664;28;20050;-63
2023/04/08 06:38:30;;;;;;;3.20;1.65;;;;;;;17.90;50.92;99465.97;4976453;28;20054;-63
2023/04/08 06:41:00;;;;;;;3.55;1.50;;;;;;;17.89;51.42;99461.63;4976712;28;20034;-63
2023/04/08 06:43:26;;;;;;;2.60;1.33;;;;;;;17.89;51.41;99464.28;4977771;28;20045;-63
2023/04/08 06:45:52;;;;;;;2.97;1.77;;;;;;;17.89;50.94;99474.84;4977264;28;20031;-63
2023/04/08 06:48:17;;;;;;;2.60;1.50;;;;;;;17.88;51.08;99483.69;4977239;28;20022;-63
2023/04/08 06:50:43;;;;;;;2.25;1.55;;;;;;;17.90;51.07;99492.38;4976476;28;20086;-63
2023/04/08 06:53:08;;;;;;;3.35;1.88;;;;;;;17.87;51.26;99492.50;4976738;28;20033;-63
2023/04/08 06:55:34;;;;;;;3.05;1.85;;;;;;;17.89;50.85;99490.66;4977017;28;20085;-63
2023/04/08 06:58:00;;;;;;;3.47;1.90;;;;;;;17.91;51.06;99488.81;4976450;28;20031;-63
2023/04/08 07:00:26;;;;;;;3.17;1.58;;;;;;;17.90;51.04;99481.81;4976038;28;20038;-63
2023/04/08 07:02:51;;;;;;;3.40;1.98;;;;;;;17.91;50.88;99494.09;4976429;28;20031;-63
2023/04/08 07:05:17;;;;;;;3.08;1.65;;;;;;;17.90;50.72;99492.38;4975937;28;20027;-63
2023/04/08 07:07:42;;;;;;;2.67;1.42;;;;;;;17.90;50.93;99489.75;4976309;28;20029;-63
2023/04/08 07:10:08;;;;;;;2.85;1.52;;;;;;;17.88;50.88;99498.66;4975844;28;20477;-63
2023/04/08 07:12:34;;;;;;;3.08;1.55;;;;;;;17.90;50.66;99489.75;4976003;28;20031;-62
2023/04/08 07:14:59;;;;;;;2.70;1.50;;;;;;;17.90;50.85;99488.88;4976155;28;20504;-63
2023/04/08 07:17:25;;;;;;;3.78;1.80;;;;;;;17.90;50.59;99492.38;4975951;28;20035;-64
2023/04/08 07:19:50;;;;;;;2.45;1.30;;;;;;;17.90;50.76;99491.50;4975799;28;20038;-63
2023/04/08 07:22:16;;;;;;;3.15;1.63;;;;;;;17.90;50.63;99492.38;4975780;28;20019;-63
2023/04/08 07:24:44;;;;;;;3.95;1.80;;;;;;;17.92;50.50;99501.06;4975078;28;20085;-63
2023/04/08 07:27:09;;;;;;;2.75;1.55;;;;;;;17.91;50.57;99499.38;4975597;28;20490;-63
2023/04/08 07:29:35;;;;;;;2.50;1.45;;;;;;;17.91;50.35;99498.53;4975699;28;20043;-63
2023/04/08 07:32:00;;;;;;;3.13;1.70;;;;;;;17.93;50.23;99502.78;4975266;28;20077;-63
2023/04/08 07:34:26;;;;;;;2.38;1.50;;;;;;;17.94;50.33;99507.16;4963681;28;20039;-64
2023/04/08 07:36:51;;;;;;;3.25;1.38;;;;;;;17.96;50.36;99502.63;4975330;28;20042;-63
2023/04/08 07:39:16;;;;;;;3.13;1.40;;;;;;;17.98;50.12;99508.69;4975412;28;20054;-63
2023/04/08 07:41:42;;;;;;;2.75;1.42;;;;;;;17.98;50.37;99511.34;4974075;28;20062;-63
2023/04/08 07:44:07;;;;;;;3.63;1.58;;;;;;;17.98;50.30;99513.97;4975355;28;20023;-63
2023/04/08 07:46:37;;;;;;;3.53;1.80;;;;;;;18.02;50.26;99516.47;4975073;28;20548;-63
2023/04/08 07:49:02;;;;;;;2.42;1.45;;;;;;;18.01;50.18;99520.91;4974555;28;20027;-63
2023/04/08 07:51:28;;;;;;;3.40;1.70;;;;;;;18.03;50.19;99523.47;4974945;28;20037;-63
2023/04/08 07:53:54;;;;;;;3.55;1.40;;;;;;;18.00;50.29;99519.19;4975130;28;20090;-63
2023/04/08 07:56:21;;;;;;;3.05;1.42;;;;;;;18.02;50.33;99527.03;4975144;28;20031;-63
2023/04/08 07:58:46;;;;;;;2.22;1.33;;;;;;;18.07;50.26;99525.06;4958343;28;20516;-63
2023/04/08 08:01:19;;;;;;;3.17;1.40;;;;;;;18.03;50.27;99529.63;4975160;28;20035;-63
2023/04/08 08:03:46;;;;;;;2.05;1.27;;;;;;;18.04;50.36;99533.97;4974443;28;20400;-63
2023/04/08 08:06:11;;;;;;;2.90;1.48;;;;;;;18.05;50.60;99542.72;4975202;28;20049;-63
2023/04/08 08:08:37;;;;;;;2.58;1.40;;;;;;;18.05;50.68;99537.44;4974042;28;20031;-63
2023/04/08 08:11:02;;;;;;;3.42;1.60;;;;;;;18.04;50.47;99530.47;4974974;28;20042;-63
2023/04/08 08:13:28;;;;;;;2.65;1.60;;;;;;;18.06;50.54;99541.84;4974697;28;20023;-63
2023/04/08 08:15:53;;;;;;;2.63;1.70;;;;;;;18.05;50.51;99537.44;4974844;28;20031;-63
2023/04/08 08:18:19;;;;;;;2.40;1.50;;;;;;;18.06;50.61;99539.22;4974599;28;20113;-63
2023/04/08 08:20:45;;;;;;;2.38;1.55;;;;;;;18.09;50.33;99539.06;4974702;28;20034;-63
2023/04/08 08:23:10;;;;;;;2.03;1.27;;;;;;;18.13;50.47;99537.13;4974841;28;20464;-63
2023/04/08 08:25:36;;;;;;;2.75;1.40;;;;;;;18.11;50.22;99539.81;4974754;28;20023;-63
2023/04/08 08:28:01;;;;;;;2.15;1.27;;;;;;;18.12;50.58;99536.28;4974592;28;20035;-63
2023/04/08 08:30:27;;;;;;;3.42;1.60;;;;;;;18.17;50.42;99542.19;4974615;28;20027;-62
2023/04/08 08:32:52;;;;;;;3.15;1.38;;;;;;;18.14;50.58;99541.47;4974101;28;20034;-63
2023/04/08 08:35:18;;;;;;;3.17;1.67;;;;;;;18.16;50.55;99544.91;4974034;28;20034;-63
2023/04/08 08:37:43;;;;;;;2.25;1.25;;;;;;;18.16;50.42;99539.63;4974300;28;20058;-63
2023/04/08 08:40:09;;;;;;;2.88;1.80;;;;;;;18.17;50.39;99547.47;4974344;28;20051;-62
2023/04/08 08:42:35;;;;;;;2.25;1.30;;;;;;;18.18;50.26;99543.03;4973885;28;20071;-64
2023/04/08 08:45:02;;;;;;;2.22;1.30;;;;;;;18.22;50.57;99537.53;4974234;28;20030;-64
2023/04/08 08:47:28;;;;;;;2.90;1.67;;;;;;;18.23;50.27;99547.19;4973800;28;20115;-63
2023/04/08 08:49:53;;;;;;;2.65;1.67;;;;;;;18.28;50.25;99548.72;4973926;28;20019;-63
2023/04/08 08:52:19;;;;;;;3.15;1.65;;;;;;;18.31;50.32;99553.88;4973318;28;20080;-64
2023/04/08 08:54:45;;;;;;;1.95;1.30;;;;;;;18.32;50.04;99558.22;4973835;28;20037;-63
2023/04/08 08:57:20;;;;;;;2.53;1.52;;;;;;;18.36;50.05;99559.81;4973858;28;20058;-63
2023/04/08 08:59:46;;;;;;;2.70;1.58;;;;;;;18.36;50.19;99555.34;4973960;28;20019;-62
2023/04/08 09:02:30;;;;;;;2.60;1.42;;;;;;;18.38;50.00;99571.13;4973254;28;20065;-63
2023/04/08 09:04:58;;;;;;;2.95;1.60;;;;;;;18.39;50.11;99564.91;4973778;28;20035;-63
2023/04/08 09:07:25;;;;;;;3.25;1.95;;;;;;;18.40;50.16;99558.69;4973621;28;20050;-63
2023/04/08 09:09:51;;;;;;;2.45;1.45;;;;;;;18.41;50.04;99567.50;4973812;28;20088;-63
2023/04/08 09:12:17;;;;;;;3.00;1.65;;;;;;;18.42;50.04;99562.16;4973933;28;20474;-62
2023/04/08 09:14:42;;;;;;;2.83;1.30;;;;;;;18.44;50.30;99559.44;4973224;28;20030;-64
2023/04/08 09:17:08;;;;;;;1.95;1.40;;;;;;;18.44;50.09;99565.56;4973242;28;20034;-62
2023/04/08 09:19:34;;;;;;;2.40;1.35;;;;;;;18.47;50.24;99565.41;4973578;28;20027;-63
2023/04/08 09:22:07;;;;;;;2.70;1.38;;;;;;;18.47;49.93;99565.41;4973635;28;20027;-63
2023/04/08 09:24:33;;;;;;;3.38;1.48;;;;;;;18.48;49.88;99567.13;4973141;28;20489;-63
2023/04/08 09:26:59;;;;;;;3.65;1.58;;;;;;;18.50;50.17;99565.25;4973549;28;20560;-63
2023/04/08 09:29:26;;;;;;;3.03;1.45;;;;;;;18.51;50.15;99561.69;4973525;28;20058;-63
2023/04/08 09:31:56;;;;;;;3.08;1.58;;;;;;;18.54;50.01;99571.25;4973375;28;20093;-63
2023/04/08 09:34:22;;;;;;;2.53;1.33;;;;;;;18.55;50.09;99566.81;4973429;28;20408;-63
2023/04/08 09:36:51;;;;;;;2.45;1.40;;;;;;;18.54;50.12;99565.97;4973540;28;20139;-63
2023/04/08 09:39:17;;;;;;;2.28;1.33;;;;;;;18.57;50.28;99575.53;4972017;28;20049;-63
2023/04/08 09:41:43;;;;;;;3.28;1.67;;;;;;;18.58;50.16;99571.94;4973210;28;20027;-62
2023/04/08 09:44:10;;;;;;;2.28;1.25;;;;;;;18.59;50.06;99578.97;4973403;28;20157;-63
2023/04/08 09:46:54;;;;;;;3.95;1.48;;;;;;;18.61;49.87;99575.31;4973054;28;20049;-63
2023/04/08 09:49:56;;;;;;;2.78;1.38;;;;;;;18.62;50.10;99578.81;4972197;28;20031;-63
2023/04/08 09:52:42;;;;;;;3.45;1.27;;;;;;;18.65;49.87;99568.09;4913430;29;20510;-63
2023/04/08 09:55:12;;;;;;;2.45;1.13;;;;;;;18.65;50.04;99574.22;4897256;29;20040;-63
2023/04/08 09:57:45;;;;;;;2.00;1.20;;;;;;;18.68;49.79;99567.94;4894721;29;20044;-63
2023/04/08 10:00:14;;;;;;;2.83;1.50;;;;;;;18.70;50.13;99571.34;4894409;29;20032;-63
2023/04/08 10:03:06;;;;;;;2.90;1.45;;;;;;;18.72;50.07;99569.50;4894262;29;20060;-64
2023/04/08 10:05:36;;;;;;;2.60;1.35;;;;;;;18.73;50.04;99559.75;4875728;29;20044;-62
2023/04/08 10:08:02;;;;;;;2.35;1.30;;;;;;;18.74;49.96;99557.03;4875999;29;20523;-63
2023/04/08 10:10:28;;;;;;;2.17;1.30;;;;;;;18.75;50.08;99558.75;4875814;29;20119;-63
2023/04/08 10:12:54;;;;;;;2.30;1.23;;;;;;;18.76;49.91;99560.50;4876179;29;20132;-63
2023/04/08 10:15:23;;;;;;;2.92;1.48;;;;;;;18.78;49.85;99563.03;4910282;29;20052;-63
2023/04/08 10:17:50;;;;;;;2.90;1.40;;;;;;;18.78;50.21;99569.19;4913244;29;20043;-62
2023/04/08 10:20:33;;;;;;;2.70;1.40;;;;;;;18.81;49.95;99568.19;4910077;29;20055;-63
2023/04/08 10:23:00;;;;;;;2.75;1.48;;;;;;;18.82;50.21;99574.31;4897447;29;20039;-63
2023/04/08 10:25:33;;;;;;;2.38;1.17;;;;;;;18.83;50.22;99570.75;4894890;29;20059;-63
2023/04/08 10:28:18;;;;;;;2.63;1.38;;;;;;;18.84;49.92;99569.81;4926073;29;20810;-63
2023/04/08 10:30:50;;;;;;;3.33;1.63;;;;;;;18.85;49.86;99577.66;4943289;29;20126;-63
2023/04/08 10:33:33;;;;;;;2.00;1.15;;;;;;;18.85;50.15;99569.75;4954523;28;20066;-62
2023/04/08 10:35:58;;;;;;;2.22;1.25;;;;;;;18.88;50.25;99574.00;4972862;28;20031;-63
2023/04/08 10:38:24;;;;;;;2.38;1.27;;;;;;;18.89;50.07;99575.72;4973282;28;20042;-63
2023/04/08 10:40:50;;;;;;;2.90;1.50;;;;;;;18.91;50.21;99573.84;4992383;28;20101;-63
2023/04/08 10:43:16;;;;;;;1.50;1.10;;;;;;;18.92;50.28;99567.63;4983923;28;20101;-63
2023/04/08 10:45:42;;;;;;;2.67;1.20;;;;;;;18.94;49.95;99562.25;4992008;28;20122;-63
2023/04/08 10:48:16;;;;;;;2.05;1.17;;;;;;;18.94;50.00;99562.25;4992197;28;20488;-63
2023/04/08 10:50:43;;;;;;;2.97;1.42;;;;;;;18.96;50.32;99560.38;4992035;28;20536;-62
2023/04/08 10:53:10;;;;;;;2.03;1.20;;;;;;;18.97;50.24;99565.59;4992229;28;20034;-63
2023/04/08 10:55:35;;;;;;;2.65;1.30;;;;;;;18.98;50.05;99567.31;4972522;28;20493;-63
2023/04/08 10:58:08;;;;;;;2.97;1.30;;;;;;;19.00;50.09;99568.09;4972705;28;20039;-62
2023/04/08 11:00:34;;;;;;;1.85;1.00;;;;;;;19.02;50.12;99566.22;4973077;28;20027;-63
2023/04/08 11:03:01;;;;;;;2.55;1.20;;;;;;;19.03;50.19;99567.13;4973079;28;20023;-63
2023/04/08 11:05:27;;;;;;;2.45;1.05;;;;;;;19.05;50.35;99559.97;4991219;28;20030;-63
2023/04/08 11:07:52;;;;;;;1.85;1.00;;;;;;;19.08;50.19;99564.25;4992499;28;20033;-63
2023/04/08 11:10:18;;;;;;;2.05;1.13;;;;;;;19.07;50.14;99563.38;4977806;28;20039;-63
2023/04/08 11:12:43;;;;;;;2.20;1.17;;;;;;;19.10;50.31;99562.38;4972221;28;20022;-63
2023/04/08 11:15:09;;;;;;;2.00;1.10;;;;;;;19.11;50.46;99564.06;4989047;28;20105;-63
2023/04/08 11:17:36;;;;;;;2.03;1.30;;;;;;;19.12;50.33;99560.50;4995374;28;20035;-63
2023/04/08 11:20:05;;;;;;;2.08;1.30;;;;;;;19.13;50.38;99556.94;4995265;28;20510;-63
2023/04/08 11:22:32;;;;;;;2.67;1.15;;;;;;;19.14;50.04;99558.63;4985352;28;20113;-63
2023/04/08 11:24:58;;;;;;;1.77;1.08;;;;;;;19.16;50.21;99554.09;4989832;28;20030;-63
2023/04/08 11:27:25;;;;;;;2.53;1.35;;;;;;;19.17;50.45;99554.03;4994794;28;20053;-63
2023/04/08 11:29:55;;;;;;;1.75;1.20;;;;;;;19.19;50.24;99552.16;4995169;28;20030;-63
2023/04/08 11:32:22;;;;;;;2.75;1.10;;;;;;;19.20;50.40;99547.72;4995252;28;20034;-63
2023/04/08 11:34:48;;;;;;;1.80;1.13;;;;;;;19.22;50.42;99548.50;4982561;28;20396;-63